createdAt,value
2022-11-29T00:01:12.718Z,14.73
2022-11-29T00:04:15.409Z,13.50
2022-11-29T00:07:17.717Z,14.43
2022-11-29T00:10:20.366Z,15.85
2022-11-29T00:13:22.634Z,13.98
2022-11-29T00:16:25.243Z,15.95
2022-11-29T00:19:28.098Z,13.80
2022-11-29T00:22:30.593Z,13.90
2022-11-29T00:25:32.856Z,15.70
2022-11-29T00:28:36.629Z,15.10
2022-11-29T00:31:39.855Z,13.90
2022-11-29T00:34:42.711Z,12.90
2022-11-29T00:37:45.225Z,13.15
2022-11-29T00:40:52.016Z,14.15
2022-11-29T00:43:54.679Z,15.65
2022-11-29T00:46:57.210Z,15.70
2022-11-29T00:49:59.475Z,15.33
2022-11-29T00:53:01.980Z,14.77
2022-11-29T00:56:05.523Z,15.77
2022-11-29T00:59:08.024Z,14.27
2022-11-29T01:02:10.288Z,13.77
2022-11-29T01:05:12.898Z,13.00
2022-11-29T01:08:15.596Z,14.35
2022-11-29T01:11:24.227Z,14.00
2022-11-29T01:14:26.529Z,14.73
2022-11-29T01:17:29.053Z,13.25
2022-11-29T01:20:31.539Z,13.03
2022-11-29T01:23:35.539Z,14.23
2022-11-29T01:26:38.094Z,13.93
2022-11-29T01:29:40.723Z,13.05
2022-11-29T01:32:43.005Z,13.35
2022-11-29T01:35:49.865Z,12.13
2022-11-29T01:38:52.509Z,12.30
2022-11-29T01:41:55.075Z,14.87
2022-11-29T01:45:22.377Z,13.85
2022-11-29T01:48:30.943Z,11.27
2022-11-29T01:51:35.924Z,11.10
2022-11-29T01:54:43.776Z,11.02
2022-11-29T01:57:46.825Z,11.57
2022-11-29T02:00:49.541Z,10.70
2022-11-29T02:03:53.678Z,12.27
2022-11-29T02:06:56.200Z,12.20
2022-11-29T02:09:58.758Z,11.25
2022-11-29T02:13:14.853Z,11.73
2022-11-29T02:16:55.029Z,12.70
2022-11-29T02:20:32.960Z,11.27
2022-11-29T02:23:35.153Z,10.80
2022-11-29T02:26:49.858Z,13.13
2022-11-29T02:30:33.792Z,13.05
2022-11-29T02:33:39.196Z,11.12
2022-11-29T02:37:12.658Z,11.20
2022-11-29T02:40:24.309Z,10.37
2022-11-29T02:44:14.334Z,11.48
2022-11-29T02:48:08.832Z,11.35
2022-11-29T02:51:20.105Z,10.90
2022-11-29T02:54:29.839Z,11.90
2022-11-29T02:57:38.097Z,11.07
2022-11-29T03:00:51.587Z,10.85
2022-11-29T03:04:23.701Z,11.60
2022-11-29T03:07:46.733Z,11.70
2022-11-29T03:10:54.729Z,10.68
2022-11-29T03:14:14.738Z,9.80
2022-11-29T03:17:22.319Z,11.55
2022-11-29T03:21:02.662Z,12.23
2022-11-29T03:24:15.800Z,12.25
2022-11-29T03:27:28.958Z,11.68
2022-11-29T03:30:35.131Z,12.30
2022-11-29T03:33:51.472Z,11.02
2022-11-29T03:37:01.106Z,13.80
2022-11-29T03:40:08.354Z,12.73
2022-11-29T03:43:18.155Z,12.52
2022-11-29T03:46:26.892Z,12.83
2022-11-29T03:49:47.853Z,12.18
2022-11-29T03:53:05.178Z,12.75
2022-11-29T03:56:35.892Z,12.10
2022-11-29T04:00:08.116Z,13.85
2022-11-29T04:03:32.277Z,10.67
2022-11-29T04:06:52.229Z,12.82
2022-11-29T04:10:28.432Z,14.30
2022-11-29T04:13:52.183Z,15.77
2022-11-29T04:16:57.182Z,15.05
2022-11-29T04:20:17.742Z,13.93
2022-11-29T04:23:32.633Z,13.93
2022-11-29T04:26:40.788Z,11.75
2022-11-29T04:30:14.155Z,12.75
2022-11-29T04:33:35.265Z,12.07
2022-11-29T04:36:59.186Z,14.73
2022-11-29T04:40:01.610Z,13.95
2022-11-29T04:43:34.654Z,13.95
2022-11-29T04:46:58.815Z,13.68
2022-11-29T04:50:25.675Z,19.70
2022-11-29T04:53:48.053Z,15.87
2022-11-29T04:56:51.539Z,13.45
2022-11-29T05:00:10.018Z,13.38
2022-11-29T05:03:23.483Z,13.55
2022-11-29T05:07:06.450Z,10.95
2022-11-29T05:10:36.929Z,10.73
2022-11-29T05:13:48.366Z,11.95
2022-11-29T05:17:08.831Z,11.35
2022-11-29T05:20:39.379Z,11.63
2022-11-29T05:24:19.322Z,12.07
2022-11-29T05:28:02.505Z,11.70
2022-11-29T05:31:36.412Z,10.75
2022-11-29T05:35:06.680Z,11.57
2022-11-29T05:38:31.825Z,11.68
2022-11-29T05:41:52.354Z,12.23
2022-11-29T05:45:16.988Z,12.13
2022-11-29T05:48:32.609Z,12.00
2022-11-29T05:51:45.975Z,10.68
2022-11-29T05:55:09.955Z,12.82
2022-11-29T05:58:40.846Z,12.40
2022-11-29T06:01:55.933Z,12.70
2022-11-29T06:05:19.933Z,11.40
2022-11-29T06:08:44.890Z,10.85
2022-11-29T06:12:02.449Z,10.60
2022-11-29T06:15:38.061Z,11.00
2022-11-29T06:18:59.269Z,11.53
2022-11-29T06:22:08.131Z,10.93
2022-11-29T06:25:48.449Z,11.07
2022-11-29T06:29:06.616Z,11.82
2022-11-29T06:32:26.192Z,12.05
2022-11-29T06:35:50.264Z,12.93
2022-11-29T06:38:53.000Z,13.60
2022-11-29T06:41:55.320Z,12.43
2022-11-29T06:44:57.957Z,10.88
2022-11-29T06:48:04.961Z,14.45
2022-11-29T06:51:19.711Z,13.00
2022-11-29T06:54:47.504Z,13.98
2022-11-29T06:57:58.222Z,15.70
2022-11-29T07:01:07.186Z,14.75
2022-11-29T07:04:18.619Z,15.18
2022-11-29T07:07:22.769Z,14.67
2022-11-29T07:10:26.882Z,14.60
2022-11-29T07:13:29.457Z,15.48
2022-11-29T07:17:04.035Z,14.70
2022-11-29T07:20:27.061Z,14.52
2022-11-29T07:23:53.092Z,14.83
2022-11-29T07:27:02.500Z,15.30
2022-11-29T07:30:05.274Z,15.45
2022-11-29T07:33:28.815Z,14.95
2022-11-29T07:36:49.462Z,14.27
2022-11-29T07:40:03.090Z,15.33
2022-11-29T07:43:18.402Z,15.13
2022-11-29T07:46:20.702Z,14.85
2022-11-29T07:49:23.283Z,14.90
2022-11-29T07:52:25.554Z,15.27
2022-11-29T07:55:29.749Z,15.97
2022-11-29T07:58:32.335Z,14.85
2022-11-29T08:01:34.943Z,14.80
2022-11-29T08:04:46.879Z,13.10
2022-11-29T08:07:49.565Z,12.32
2022-11-29T08:10:52.189Z,13.83
2022-11-29T08:13:58.404Z,14.55
2022-11-29T08:17:00.976Z,15.30
2022-11-29T08:20:04.489Z,15.82
2022-11-29T08:23:07.722Z,16.45
2022-11-29T08:26:10.038Z,12.53
2022-11-29T08:29:12.980Z,13.38
2022-11-29T08:32:15.372Z,16.25
2022-11-29T08:35:19.732Z,15.18
2022-11-29T08:38:22.557Z,17.90
2022-11-29T08:41:25.150Z,15.97
2022-11-29T08:44:27.632Z,15.52
2022-11-29T08:47:35.797Z,19.83
2022-11-29T08:50:38.161Z,15.35
2022-11-29T08:53:44.603Z,18.10
2022-11-29T08:57:23.510Z,16.57
2022-11-29T09:00:12.626Z,17.30
2022-11-29T09:03:33.637Z,20.40
2022-11-29T09:06:43.114Z,16.90
2022-11-29T09:09:45.421Z,16.05
2022-11-29T09:12:49.663Z,15.77
2022-11-29T09:15:51.977Z,14.57
2022-11-29T09:18:56.043Z,15.05
2022-11-29T09:21:58.280Z,17.30
2022-11-29T09:25:00.851Z,18.02
2022-11-29T09:28:03.486Z,16.37
2022-11-29T09:31:11.261Z,17.90
2022-11-29T09:34:14.878Z,17.45
2022-11-29T09:37:17.443Z,18.12
2022-11-29T09:40:22.844Z,17.55
2022-11-29T09:44:00.720Z,16.50
2022-11-29T09:47:39.744Z,17.52
2022-11-29T09:50:54.116Z,17.12
2022-11-29T09:54:05.439Z,17.52
2022-11-29T09:57:10.785Z,16.37
2022-11-29T10:00:20.057Z,16.93
2022-11-29T10:03:36.384Z,16.45
2022-11-29T10:07:00.391Z,18.70
2022-11-29T10:10:26.121Z,17.92
2022-11-29T10:13:33.439Z,20.10
2022-11-29T10:16:58.751Z,21.07
2022-11-29T10:20:21.672Z,17.37
2022-11-29T10:23:29.326Z,17.60
2022-11-29T10:26:35.122Z,17.85
2022-11-29T10:29:38.640Z,17.48
2022-11-29T10:32:43.528Z,15.70
2022-11-29T10:35:47.778Z,14.95
2022-11-29T10:38:52.322Z,15.07
2022-11-29T10:41:57.713Z,16.55
2022-11-29T10:45:00.409Z,16.70
2022-11-29T10:48:15.879Z,18.90
2022-11-29T10:51:18.799Z,17.95
2022-11-29T10:54:41.841Z,17.23
2022-11-29T10:58:16.095Z,17.85
2022-11-29T11:01:18.767Z,14.85
2022-11-29T11:04:44.720Z,15.10
2022-11-29T11:07:57.422Z,15.20
2022-11-29T11:11:02.104Z,13.20
2022-11-29T11:14:17.169Z,15.07
2022-11-29T11:17:32.903Z,15.95
2022-11-29T11:20:42.275Z,14.80
2022-11-29T11:24:04.452Z,14.30
2022-11-29T11:27:07.198Z,14.43
2022-11-29T11:30:22.550Z,16.12
2022-11-29T11:33:26.561Z,16.52
2022-11-29T11:36:28.960Z,15.80
2022-11-29T11:39:32.273Z,14.23
2022-11-29T11:42:41.039Z,16.50
2022-11-29T11:45:53.165Z,15.43
2022-11-29T11:48:55.580Z,14.15
2022-11-29T11:52:00.393Z,15.10
2022-11-29T11:55:07.603Z,14.13
2022-11-29T11:58:12.900Z,16.00
2022-11-29T12:01:16.986Z,15.23
2022-11-29T12:04:34.060Z,15.80
2022-11-29T12:08:07.260Z,15.87
2022-11-29T12:11:11.839Z,15.95
2022-11-29T12:14:28.227Z,15.35
2022-11-29T12:17:40.012Z,14.38
2022-11-29T12:21:03.799Z,15.30
2022-11-29T12:24:24.647Z,15.23
2022-11-29T12:27:33.032Z,16.23
2022-11-29T12:30:36.012Z,16.08
2022-11-29T12:33:47.380Z,15.75
2022-11-29T12:37:02.561Z,16.98
2022-11-29T12:40:32.613Z,16.63
2022-11-29T12:44:04.036Z,17.92
2022-11-29T12:47:37.087Z,17.20
2022-11-29T12:50:45.952Z,16.98
2022-11-29T12:53:54.227Z,16.92
2022-11-29T12:57:23.958Z,16.90
2022-11-29T13:00:31.571Z,17.77
2022-11-29T13:03:47.610Z,18.70
2022-11-29T13:06:59.537Z,17.08
2022-11-29T13:10:20.315Z,17.65
2022-11-29T13:13:42.742Z,16.53
2022-11-29T13:16:56.806Z,16.70
2022-11-29T13:20:16.486Z,18.23
2022-11-29T13:23:45.688Z,17.77
2022-11-29T13:26:49.772Z,16.20
2022-11-29T13:29:53.810Z,14.93
2022-11-29T13:33:05.101Z,16.30
2022-11-29T13:36:37.194Z,17.92
2022-11-29T13:39:48.420Z,16.67
2022-11-29T13:43:05.735Z,16.67
2022-11-29T13:46:16.385Z,18.07
2022-11-29T13:49:42.765Z,17.80
2022-11-29T13:52:47.239Z,16.90
2022-11-29T13:56:01.398Z,17.30
2022-11-29T13:59:08.777Z,18.00
2022-11-29T14:02:29.912Z,16.47
2022-11-29T14:05:39.863Z,16.52
2022-11-29T14:12:48.895Z,17.42
2022-11-29T14:15:58.629Z,19.23
2022-11-29T14:19:09.282Z,17.73
2022-11-29T14:22:19.469Z,18.20
2022-11-29T14:28:46.971Z,18.80
2022-11-29T14:31:51.822Z,19.45
2022-11-29T14:35:12.490Z,18.40
2022-11-29T14:38:39.198Z,17.62
2022-11-29T14:42:19.130Z,18.75
2022-11-29T14:45:31.127Z,16.85
2022-11-29T14:48:34.343Z,17.77
2022-11-29T14:51:37.470Z,17.40
2022-11-29T14:54:59.272Z,18.20
2022-11-29T14:58:05.952Z,18.95
2022-11-29T15:01:10.869Z,18.67
2022-11-29T15:04:13.920Z,18.98
2022-11-29T15:07:24.710Z,17.70
2022-11-29T15:10:31.595Z,18.83
2022-11-29T15:13:36.567Z,19.33
2022-11-29T15:16:56.346Z,17.52
2022-11-29T15:19:58.522Z,17.87
2022-11-29T15:23:09.752Z,18.47
2022-11-29T15:26:20.599Z,18.87
2022-11-29T15:29:23.613Z,18.55
2022-11-29T15:32:32.786Z,18.00
2022-11-29T15:35:36.756Z,18.75
2022-11-29T15:38:45.370Z,19.30
2022-11-29T15:41:47.968Z,21.40
2022-11-29T15:44:52.943Z,22.20
2022-11-29T15:48:10.310Z,21.02
2022-11-29T15:51:30.406Z,21.58
2022-11-29T15:54:57.027Z,21.60
2022-11-29T15:58:07.031Z,20.98
2022-11-29T16:01:19.274Z,20.25
2022-11-29T16:04:24.623Z,19.48
2022-11-29T16:07:32.388Z,22.65
2022-11-29T16:10:40.615Z,19.07
2022-11-29T16:14:16.673Z,19.40
2022-11-29T16:17:20.990Z,20.65
2022-11-29T16:20:25.863Z,20.40
2022-11-29T16:23:34.114Z,21.02
2022-11-29T16:26:44.082Z,20.83
2022-11-29T16:29:47.521Z,20.55
2022-11-29T16:32:59.469Z,21.37
2022-11-29T16:36:28.805Z,21.02
2022-11-29T16:39:31.586Z,19.12
2022-11-29T16:42:34.965Z,21.20
2022-11-29T16:45:41.712Z,21.55
2022-11-29T16:48:44.373Z,21.48
2022-11-29T16:51:48.365Z,19.55
2022-11-29T16:54:51.800Z,24.52
2022-11-29T16:57:54.164Z,21.90
2022-11-29T17:00:56.775Z,24.20
2022-11-29T17:04:00.536Z,20.62
2022-11-29T17:07:05.823Z,22.20
2022-11-29T17:10:13.415Z,22.40
2022-11-29T17:13:16.053Z,22.90
2022-11-29T17:16:21.261Z,22.80
2022-11-29T17:19:24.520Z,22.37
2022-11-29T17:22:26.846Z,22.55
2022-11-29T17:25:29.432Z,22.35
2022-11-29T17:28:31.755Z,21.50
2022-11-29T17:31:34.433Z,21.48
2022-11-29T17:34:37.270Z,22.70
2022-11-29T17:37:39.862Z,23.45
2022-11-29T17:40:42.193Z,21.70
2022-11-29T17:43:44.813Z,21.73
2022-11-29T17:46:47.001Z,21.33
2022-11-29T17:49:49.562Z,21.50
2022-11-29T17:52:51.843Z,22.40
2022-11-29T17:55:54.408Z,21.55
2022-11-29T17:58:59.071Z,20.03
2022-11-29T18:02:03.923Z,22.30
2022-11-29T18:05:07.137Z,21.67
2022-11-29T18:08:09.517Z,23.10
2022-11-29T18:11:13.348Z,23.60
2022-11-29T18:14:23.787Z,22.37
2022-11-29T18:17:26.718Z,23.10
2022-11-29T18:20:28.916Z,23.00
2022-11-29T18:23:33.841Z,20.77
2022-11-29T18:26:37.379Z,20.67
2022-11-29T18:29:40.000Z,21.13
2022-11-29T18:32:42.231Z,21.83
2022-11-29T18:35:44.784Z,21.87
2022-11-29T18:38:48.167Z,22.30
2022-11-29T18:41:51.181Z,21.33
2022-11-29T18:44:58.638Z,20.73
2022-11-29T18:48:01.647Z,23.48
2022-11-29T18:51:10.245Z,23.87
2022-11-29T18:54:17.594Z,25.60
2022-11-29T18:57:19.883Z,24.60
2022-11-29T19:00:22.653Z,22.60
2022-11-29T19:03:24.945Z,22.05
2022-11-29T19:06:35.582Z,23.65
2022-11-29T19:09:41.380Z,22.45
2022-11-29T19:12:44.032Z,23.40
2022-11-29T19:15:55.976Z,21.07
2022-11-29T19:18:59.713Z,21.98
2022-11-29T19:22:02.548Z,24.27
2022-11-29T19:25:06.025Z,21.58
2022-11-29T19:28:13.897Z,25.90
2022-11-29T19:31:19.272Z,24.03
2022-11-29T19:34:23.599Z,22.25
2022-11-29T19:37:26.195Z,21.65
2022-11-29T19:40:28.521Z,21.42
2022-11-29T19:43:31.616Z,21.60
2022-11-29T19:46:40.071Z,21.43
2022-11-29T19:49:46.582Z,21.08
2022-11-29T19:52:49.403Z,23.02
2022-11-29T19:55:52.173Z,21.58
2022-11-29T19:58:55.342Z,21.10
2022-11-29T20:01:58.161Z,21.57
2022-11-29T20:05:01.379Z,22.35
2022-11-29T20:08:03.882Z,23.10
2022-11-29T20:11:08.047Z,22.80
2022-11-29T20:14:12.051Z,22.05
2022-11-29T20:17:14.727Z,21.13
2022-11-29T20:20:17.090Z,21.17
2022-11-29T20:23:19.783Z,21.45
2022-11-29T20:26:25.422Z,21.40
2022-11-29T20:29:30.997Z,21.92
2022-11-29T20:32:34.976Z,22.33
2022-11-29T20:35:38.332Z,20.88
2022-11-29T20:38:48.781Z,21.30
2022-11-29T20:42:18.843Z,22.40
2022-11-29T20:45:24.266Z,23.25
2022-11-29T20:48:28.875Z,19.90
2022-11-29T20:51:42.978Z,22.23
2022-11-29T20:54:45.570Z,22.60
2022-11-29T20:57:48.039Z,22.52
2022-11-29T21:00:50.638Z,22.50
2022-11-29T21:03:53.266Z,23.20
2022-11-29T21:06:55.963Z,23.15
2022-11-29T21:10:01.405Z,22.33
2022-11-29T21:13:06.043Z,22.40
2022-11-29T21:16:11.117Z,22.80
2022-11-29T21:19:21.320Z,22.43
2022-11-29T21:22:42.706Z,20.23
2022-11-29T21:25:55.018Z,22.65
2022-11-29T21:29:00.466Z,21.67
2022-11-29T21:32:03.624Z,22.35
2022-11-29T21:35:07.071Z,20.47
2022-11-29T21:38:20.114Z,22.83
2022-11-29T21:41:23.740Z,22.80
2022-11-29T21:44:27.706Z,21.95
2022-11-29T21:47:30.577Z,21.48
2022-11-29T21:50:33.100Z,20.97
2022-11-29T21:53:37.082Z,20.88
2022-11-29T21:56:39.876Z,22.70
2022-11-29T21:59:42.622Z,20.90
2022-11-29T22:02:47.947Z,19.50
2022-11-29T22:05:52.647Z,21.53
2022-11-29T22:08:55.016Z,20.70
2022-11-29T22:11:59.058Z,20.45
2022-11-29T22:15:01.384Z,19.83
2022-11-29T22:18:04.511Z,22.25
2022-11-29T22:21:07.455Z,20.37
2022-11-29T22:24:11.463Z,20.02
2022-11-29T22:27:13.778Z,20.83
2022-11-29T22:30:16.815Z,20.35
2022-11-29T22:33:19.064Z,20.60
2022-11-29T22:36:21.894Z,21.27
2022-11-29T22:39:24.306Z,21.37
2022-11-29T22:42:27.238Z,22.02
2022-11-29T22:45:29.545Z,20.77
2022-11-29T22:48:38.161Z,21.62
2022-11-29T22:51:41.598Z,21.43
2022-11-29T22:54:44.753Z,21.12
2022-11-29T22:57:47.773Z,21.52
2022-11-29T23:00:50.307Z,21.08
2022-11-29T23:04:00.970Z,22.15
2022-11-29T23:07:03.540Z,20.87
2022-11-29T23:10:06.525Z,21.33
2022-11-29T23:13:09.080Z,21.05
2022-11-29T23:16:14.264Z,21.10
2022-11-29T23:19:17.378Z,21.05
2022-11-29T23:22:19.637Z,19.00
2022-11-29T23:25:22.371Z,20.58
2022-11-29T23:28:25.622Z,20.37
2022-11-29T23:31:28.755Z,19.20
2022-11-29T23:34:31.235Z,20.37
2022-11-29T23:37:33.726Z,18.37
2022-11-29T23:40:35.969Z,19.65
2022-11-29T23:43:40.656Z,19.20
2022-11-29T23:46:42.962Z,17.95
2022-11-29T23:49:45.581Z,19.48
2022-11-29T23:52:53.891Z,17.87
2022-11-29T23:55:58.417Z,19.75
2022-11-29T23:59:01.379Z,20.60
